createdAt,value
2017-11-21T00:02:02.833Z,100699.95
2017-11-21T00:04:31.074Z,100699.38
2017-11-21T00:06:59.374Z,100691.20
2017-11-21T00:09:27.614Z,100685.47
2017-11-21T00:11:55.938Z,100681.23
2017-11-21T00:14:24.236Z,100686.22
2017-11-21T00:16:52.545Z,100678.18
2017-11-21T00:19:20.851Z,100674.18
2017-11-21T00:21:49.183Z,100677.53
2017-11-21T00:24:17.453Z,100677.13
2017-11-21T00:26:45.815Z,100666.01
2017-11-21T00:29:14.258Z,100664.04
2017-11-21T00:31:42.762Z,100660.91
2017-11-21T00:34:11.020Z,100665.26
2017-11-21T00:36:39.359Z,100666.01
2017-11-21T00:39:07.622Z,100676.14
2017-11-21T00:41:35.970Z,100673.53
2017-11-21T00:44:04.214Z,100672.15
2017-11-21T00:46:32.645Z,100662.99
2017-11-21T00:49:00.893Z,100664.22
2017-11-21T00:51:29.172Z,100655.47
2017-11-21T00:53:57.456Z,100660.22
2017-11-21T00:56:25.759Z,100662.01
2017-11-21T00:58:54.010Z,100668.15
2017-11-21T01:01:22.297Z,100658.19
2017-11-21T01:03:50.570Z,100651.64
2017-11-21T01:06:18.869Z,100652.02
2017-11-21T01:08:47.189Z,100656.35
2017-11-21T01:11:15.479Z,100651.20
2017-11-21T01:13:43.923Z,100640.25
2017-11-21T01:16:12.478Z,100638.05
2017-11-21T01:18:40.746Z,100633.64
2017-11-21T01:21:09.124Z,100629.87
2017-11-21T01:23:37.455Z,100625.30
2017-11-21T01:26:05.746Z,100613.37
2017-11-21T01:28:34.190Z,100609.00
2017-11-21T01:31:02.523Z,100611.78
2017-11-21T01:33:30.761Z,100605.81
2017-11-21T01:35:59.068Z,100604.83
2017-11-21T01:38:27.318Z,100603.03
2017-11-21T01:40:55.606Z,100598.66
2017-11-21T01:43:24.877Z,100608.77
2017-11-21T01:45:53.193Z,100616.73
2017-11-21T01:48:21.512Z,100615.17
2017-11-21T01:50:49.797Z,100620.56
2017-11-21T01:53:18.170Z,100626.12
2017-11-21T01:55:46.462Z,100622.59
2017-11-21T01:58:14.718Z,100610.89
2017-11-21T02:00:42.992Z,100616.05
2017-11-21T02:03:11.602Z,100611.70
2017-11-21T02:05:39.879Z,100619.06
2017-11-21T02:08:09.671Z,100619.23
2017-11-21T02:10:39.440Z,100624.44
2017-11-21T02:13:10.955Z,100624.81
2017-11-21T02:15:40.383Z,100628.01
2017-11-21T02:18:08.670Z,100623.84
2017-11-21T02:20:37.170Z,100614.31
2017-11-21T02:23:06.926Z,100607.16
2017-11-21T02:25:35.730Z,100589.49
2017-11-21T02:28:04.158Z,100576.95
2017-11-21T02:30:32.498Z,100568.61
2017-11-21T02:33:00.771Z,100569.42
2017-11-21T02:35:29.246Z,100580.17
2017-11-21T02:38:01.250Z,100586.71
2017-11-21T02:40:29.639Z,100589.31
2017-11-21T02:42:57.933Z,100586.54
2017-11-21T02:45:26.988Z,100574.84
2017-11-21T02:47:55.800Z,100573.45
2017-11-21T02:50:25.282Z,100572.06
2017-11-21T02:52:54.274Z,100555.37
2017-11-21T02:55:22.738Z,100558.73
2017-11-21T02:57:51.023Z,100569.69
2017-11-21T03:00:19.315Z,100578.44
2017-11-21T03:02:47.624Z,100582.84
2017-11-21T03:05:15.910Z,100581.79
2017-11-21T03:07:44.171Z,100578.67
2017-11-21T03:10:12.442Z,100577.45
2017-11-21T03:12:41.319Z,100573.69
2017-11-21T03:15:09.634Z,100574.09
2017-11-21T03:17:37.916Z,100569.34
2017-11-21T03:20:06.297Z,100581.45
2017-11-21T03:24:47.827Z,100583.41
2017-11-21T03:27:16.160Z,100583.41
2017-11-21T03:29:44.491Z,100579.01
2017-11-21T03:32:13.186Z,100563.31
2017-11-21T03:34:41.655Z,100553.58
2017-11-21T03:37:09.985Z,100539.11
2017-11-21T03:39:38.376Z,100539.92
2017-11-21T03:42:06.655Z,100540.09
2017-11-21T03:44:35.399Z,100543.10
2017-11-21T03:47:04.921Z,100541.53
2017-11-21T03:49:33.323Z,100546.46
2017-11-21T03:52:01.849Z,100542.29
2017-11-21T03:54:30.354Z,100544.09
2017-11-21T03:56:58.782Z,100541.48
2017-11-21T03:59:27.219Z,100538.53
2017-11-21T04:01:55.546Z,100526.19
2017-11-21T04:04:26.730Z,100521.84
2017-11-21T04:06:55.258Z,100510.90
2017-11-21T04:09:23.703Z,100505.74
2017-11-21T04:11:52.047Z,100502.38
2017-11-21T04:14:20.495Z,100509.91
2017-11-21T04:16:48.869Z,100502.21
2017-11-21T04:19:17.167Z,100505.80
2017-11-21T04:21:45.651Z,100511.39
2017-11-21T04:24:15.933Z,100534.45
2017-11-21T04:26:44.370Z,100544.98
2017-11-21T04:29:12.647Z,100550.52
2017-11-21T04:31:41.000Z,100553.33
2017-11-21T04:34:09.275Z,100546.34
2017-11-21T04:36:37.600Z,100549.70
2017-11-21T04:39:05.913Z,100555.47
2017-11-21T04:41:34.209Z,100551.09
2017-11-21T04:44:02.474Z,100548.72
2017-11-21T04:46:30.866Z,100555.67
2017-11-21T04:48:59.137Z,100555.84
2017-11-21T04:51:27.456Z,100549.48
2017-11-21T04:53:55.710Z,100553.64
2017-11-21T04:56:24.030Z,100558.45
2017-11-21T04:58:52.633Z,100555.27
2017-11-21T05:04:16.573Z,100535.17
2017-11-21T05:06:44.924Z,100544.66
2017-11-21T05:09:13.198Z,100538.30
2017-11-21T05:11:41.549Z,100537.95
2017-11-21T05:14:09.805Z,100538.00
2017-11-21T05:16:38.173Z,100536.96
2017-11-21T05:19:06.456Z,100534.41
2017-11-21T05:21:34.797Z,100532.39
2017-11-21T05:24:03.098Z,100526.42
2017-11-21T05:26:31.460Z,100521.44
2017-11-21T05:28:59.737Z,100519.23
2017-11-21T05:31:28.068Z,100519.64
2017-11-21T05:33:56.344Z,100521.03
2017-11-21T05:36:24.701Z,100517.04
2017-11-21T05:38:52.989Z,100514.26
2017-11-21T05:41:21.356Z,100510.06
2017-11-21T05:43:53.544Z,100514.23
2017-11-21T05:46:22.071Z,100510.66
2017-11-21T05:48:51.794Z,100515.41
2017-11-21T05:51:21.185Z,100517.01
2017-11-21T05:53:49.497Z,100514.23
2017-11-21T05:56:18.168Z,100514.80
2017-11-21T05:58:47.576Z,100513.59
2017-11-21T06:01:16.409Z,100510.66
2017-11-21T06:03:44.851Z,100515.47
2017-11-21T06:06:13.169Z,100509.10
2017-11-21T06:08:41.488Z,100510.31
2017-11-21T06:11:09.804Z,100508.41
2017-11-21T06:13:38.128Z,100507.13
2017-11-21T06:16:06.711Z,100506.23
2017-11-21T06:18:34.992Z,100510.98
2017-11-21T06:21:03.304Z,100501.25
2017-11-21T06:23:31.627Z,100507.33
2017-11-21T06:25:59.995Z,100505.53
2017-11-21T06:28:28.357Z,100510.11
2017-11-21T06:30:56.670Z,100505.51
2017-11-21T06:33:24.981Z,100502.90
2017-11-21T06:35:53.295Z,100496.36
2017-11-21T06:38:21.671Z,100497.58
2017-11-21T06:40:49.978Z,100500.21
2017-11-21T06:43:18.326Z,100497.66
2017-11-21T06:45:46.843Z,100498.30
2017-11-21T06:48:15.146Z,100500.73
2017-11-21T06:50:43.464Z,100504.67
2017-11-21T06:53:11.750Z,100507.69
2017-11-21T06:55:40.088Z,100515.21
2017-11-21T06:58:08.568Z,100504.91
2017-11-21T07:00:37.082Z,100506.90
2017-11-21T07:03:05.358Z,100510.66
2017-11-21T07:05:33.694Z,100516.05
2017-11-21T07:08:02.046Z,100519.30
2017-11-21T07:10:30.405Z,100525.20
2017-11-21T07:12:58.727Z,100524.80
2017-11-21T07:15:27.052Z,100525.14
2017-11-21T07:17:55.408Z,100527.92
2017-11-21T07:20:23.740Z,100515.65
2017-11-21T07:22:52.047Z,100525.78
2017-11-21T07:25:20.386Z,100523.06
2017-11-21T07:27:48.694Z,100522.83
2017-11-21T07:30:17.024Z,100520.72
2017-11-21T07:32:45.414Z,100526.28
2017-11-21T07:35:13.925Z,100529.87
2017-11-21T07:37:42.256Z,100538.59
2017-11-21T07:40:10.586Z,100530.42
2017-11-21T07:42:38.957Z,100543.10
2017-11-21T07:45:07.654Z,100537.78
2017-11-21T07:47:35.980Z,100541.95
2017-11-21T07:50:04.339Z,100534.99
2017-11-21T07:52:32.641Z,100533.60
2017-11-21T07:55:00.958Z,100538.79
2017-11-21T07:57:29.342Z,100535.43
2017-11-21T07:59:57.647Z,100538.00
2017-11-21T08:02:25.988Z,100532.07
2017-11-21T08:04:54.549Z,100528.30
2017-11-21T08:07:22.948Z,100524.72
2017-11-21T08:09:51.344Z,100517.82
2017-11-21T08:12:19.837Z,100518.81
2017-11-21T08:14:48.130Z,100523.78
2017-11-21T08:17:16.469Z,100532.13
2017-11-21T08:19:44.762Z,100533.11
2017-11-21T08:22:13.127Z,100534.73
2017-11-21T08:24:41.463Z,100534.33
2017-11-21T08:27:09.865Z,100537.11
2017-11-21T08:29:38.202Z,100535.95
2017-11-21T08:32:06.587Z,100543.75
2017-11-21T08:34:34.845Z,100542.01
2017-11-21T08:37:03.228Z,100541.20
2017-11-21T08:39:31.790Z,100548.38
2017-11-21T08:42:00.517Z,100550.81
2017-11-21T08:44:28.838Z,100555.36
2017-11-21T08:46:57.801Z,100557.16
2017-11-21T08:49:27.639Z,100556.17
2017-11-21T08:51:56.009Z,100557.56
2017-11-21T08:54:24.297Z,100555.02
2017-11-21T08:56:52.813Z,100558.78
2017-11-21T08:59:21.117Z,100560.41
2017-11-21T09:01:49.488Z,100562.20
2017-11-21T09:04:17.814Z,100558.44
2017-11-21T09:06:46.202Z,100557.86
2017-11-21T09:09:14.512Z,100547.72
2017-11-21T09:11:43.084Z,100545.92
2017-11-21T09:14:11.532Z,100543.38
2017-11-21T09:16:39.845Z,100537.41
2017-11-21T09:19:08.221Z,100543.40
2017-11-21T09:21:36.629Z,100547.16
2017-11-21T09:24:04.918Z,100554.41
2017-11-21T09:26:33.210Z,100549.42
2017-11-21T09:29:01.498Z,100552.15
2017-11-21T09:31:29.797Z,100556.73
2017-11-21T09:33:58.089Z,100551.95
2017-11-21T09:36:26.441Z,100554.93
2017-11-21T09:38:54.782Z,100559.05
2017-11-21T09:41:23.120Z,100558.64
2017-11-21T09:43:51.437Z,100561.30
2017-11-21T09:46:19.805Z,100566.30
2017-11-21T09:48:48.120Z,100569.29
2017-11-21T09:51:16.452Z,100567.77
2017-11-21T09:53:44.786Z,100574.89
2017-11-21T09:56:13.260Z,100577.36
2017-11-21T09:58:41.652Z,100576.25
2017-11-21T10:01:10.143Z,100579.56
2017-11-21T10:03:38.437Z,100572.84
2017-11-21T10:06:06.931Z,100573.82
2017-11-21T10:08:35.282Z,100568.02
2017-11-21T10:11:03.603Z,100575.62
2017-11-21T10:13:31.897Z,100571.53
2017-11-21T10:16:00.197Z,100573.41
2017-11-21T10:18:28.477Z,100571.50
2017-11-21T10:20:56.773Z,100565.16
2017-11-21T10:23:25.242Z,100558.58
2017-11-21T10:25:53.592Z,100567.01
2017-11-21T10:28:21.976Z,100571.27
2017-11-21T10:30:50.288Z,100573.88
2017-11-21T10:33:18.594Z,100567.53
2017-11-21T10:35:46.920Z,100574.41
2017-11-21T10:38:15.237Z,100574.89
2017-11-21T10:40:43.580Z,100571.30
2017-11-21T10:43:11.928Z,100569.65
2017-11-21T10:45:40.229Z,100575.21
2017-11-21T10:48:08.533Z,100570.00
2017-11-21T10:50:36.887Z,100564.20
2017-11-21T10:53:05.216Z,100566.58
2017-11-21T10:55:33.571Z,100565.97
2017-11-21T10:58:01.912Z,100561.97
2017-11-21T11:00:30.701Z,100561.39
2017-11-21T11:02:58.993Z,100558.78
2017-11-21T11:05:27.288Z,100560.41
2017-11-21T11:07:55.557Z,100559.36
2017-11-21T11:10:23.858Z,100558.38
2017-11-21T11:12:52.150Z,100550.84
2017-11-21T11:15:20.505Z,100549.28
2017-11-21T11:17:48.949Z,100558.95
2017-11-21T11:20:17.289Z,100561.39
2017-11-21T11:22:45.728Z,100559.19
2017-11-21T11:25:14.035Z,100552.81
2017-11-21T11:27:42.749Z,100549.39
2017-11-21T11:30:11.069Z,100554.95
2017-11-21T11:32:39.401Z,100545.05
2017-11-21T11:35:07.786Z,100549.86
2017-11-21T11:37:36.115Z,100541.69
2017-11-21T11:40:04.462Z,100538.73
2017-11-21T11:42:32.749Z,100534.79
2017-11-21T11:45:00.997Z,100531.59
2017-11-21T11:47:29.370Z,100529.75
2017-11-21T11:49:57.670Z,100529.40
2017-11-21T11:52:26.029Z,100528.01
2017-11-21T11:54:54.363Z,100523.08
2017-11-21T11:57:22.765Z,100526.44
2017-11-21T11:59:51.073Z,100523.42
2017-11-21T12:02:19.404Z,100524.06
2017-11-21T12:04:47.696Z,100524.82
2017-11-21T12:07:16.085Z,100523.08
2017-11-21T12:09:44.426Z,100521.69
2017-11-21T12:12:12.789Z,100521.23
2017-11-21T12:14:41.113Z,100534.91
2017-11-21T12:17:09.441Z,100534.73
2017-11-21T12:19:37.735Z,100529.92
2017-11-21T12:22:06.122Z,100517.98
2017-11-21T12:24:34.477Z,100520.77
2017-11-21T12:27:02.802Z,100518.21
2017-11-21T12:29:31.129Z,100516.42
2017-11-21T12:31:59.448Z,100517.17
2017-11-21T12:34:27.720Z,100529.08
2017-11-21T12:36:56.058Z,100528.50
2017-11-21T12:39:24.456Z,100535.86
2017-11-21T12:41:52.809Z,100537.05
2017-11-21T12:44:21.345Z,100532.06
2017-11-21T12:46:49.755Z,100540.23
2017-11-21T12:49:18.078Z,100537.05
2017-11-21T12:51:46.434Z,100539.02
2017-11-21T12:54:14.757Z,100545.20
2017-11-21T12:56:43.077Z,100532.84
2017-11-21T12:59:11.402Z,100534.65
2017-11-21T13:01:39.741Z,100535.25
2017-11-21T13:04:08.090Z,100541.28
2017-11-21T13:06:36.422Z,100544.12
2017-11-21T13:09:19.152Z,100545.94
2017-11-21T13:11:47.517Z,100552.14
2017-11-21T13:14:16.012Z,100549.02
2017-11-21T13:16:44.412Z,100549.42
2017-11-21T13:19:12.721Z,100541.09
2017-11-21T13:21:41.105Z,100537.56
2017-11-21T13:24:09.474Z,100538.66
2017-11-21T13:26:37.826Z,100532.21
2017-11-21T13:29:06.117Z,100532.44
2017-11-21T13:31:34.528Z,100527.92
2017-11-21T13:34:02.821Z,100530.95
2017-11-21T13:36:31.273Z,100541.62
2017-11-21T13:38:59.794Z,100536.08
2017-11-21T13:41:28.216Z,100543.09
2017-11-21T13:43:56.622Z,100552.66
2017-11-21T13:46:25.391Z,100542.91
2017-11-21T13:48:53.749Z,100548.48
2017-11-21T13:51:22.093Z,100550.05
2017-11-21T13:53:50.446Z,100544.73
2017-11-21T13:56:18.796Z,100554.10
2017-11-21T13:58:47.125Z,100545.92
2017-11-21T14:01:16.011Z,100545.34
2017-11-21T14:03:45.743Z,100544.08
2017-11-21T14:06:14.102Z,100545.64
2017-11-21T14:08:42.397Z,100538.05
2017-11-21T14:11:11.313Z,100548.40
2017-11-21T14:13:40.788Z,100549.39
2017-11-21T14:16:10.409Z,100550.38
2017-11-21T14:18:42.695Z,100558.72
2017-11-21T14:21:13.247Z,100553.16
2017-11-21T14:23:42.150Z,100555.36
2017-11-21T14:26:12.374Z,100562.11
2017-11-21T14:28:41.321Z,100553.16
2017-11-21T14:31:09.644Z,100557.09
2017-11-21T14:33:37.997Z,100558.89
2017-11-21T14:36:06.376Z,100559.25
2017-11-21T14:38:34.771Z,100555.88
2017-11-21T14:41:03.149Z,100556.29
2017-11-21T14:43:31.499Z,100555.25
2017-11-21T14:45:59.848Z,100549.68
2017-11-21T14:48:28.382Z,100538.89
2017-11-21T14:50:56.709Z,100534.52
2017-11-21T14:53:25.121Z,100530.35
2017-11-21T14:55:53.447Z,100531.74
2017-11-21T14:58:21.828Z,100534.52
2017-11-21T15:00:50.174Z,100533.31
2017-11-21T15:03:18.493Z,100532.67
2017-11-21T15:05:46.833Z,100533.48
2017-11-21T15:08:15.176Z,100534.30
2017-11-21T15:10:43.709Z,100536.27
2017-11-21T15:13:12.086Z,100536.11
2017-11-21T15:15:40.397Z,100535.49
2017-11-21T15:18:08.684Z,100530.02
2017-11-21T15:20:36.973Z,100521.22
2017-11-21T15:23:05.287Z,100520.50
2017-11-21T15:25:33.908Z,100520.42
2017-11-21T15:28:02.432Z,100511.59
2017-11-21T15:30:30.748Z,100516.66
2017-11-21T15:32:59.164Z,100510.45
2017-11-21T15:35:27.477Z,100512.28
2017-11-21T15:37:55.762Z,100510.06
2017-11-21T15:40:24.242Z,100508.84
2017-11-21T15:42:52.589Z,100503.62
2017-11-21T15:45:20.914Z,100501.25
2017-11-21T15:47:49.415Z,100507.80
2017-11-21T15:50:17.697Z,100510.58
2017-11-21T15:52:46.088Z,100514.41
2017-11-21T15:55:14.564Z,100513.19
2017-11-21T15:57:42.881Z,100518.12
2017-11-21T16:00:11.326Z,100517.69
2017-11-21T16:02:41.615Z,100516.47
2017-11-21T16:05:09.947Z,100507.17
2017-11-21T16:07:38.244Z,100508.88
2017-11-21T16:10:06.701Z,100508.70
2017-11-21T16:12:35.048Z,100514.45
2017-11-21T16:15:03.380Z,100514.09
2017-11-21T16:17:31.775Z,100514.67
2017-11-21T16:20:00.057Z,100519.02
2017-11-21T16:22:28.393Z,100519.60
2017-11-21T16:24:57.080Z,100520.14
2017-11-21T16:27:25.413Z,100521.46
2017-11-21T16:29:53.721Z,100523.34
2017-11-21T16:32:22.052Z,100523.30
2017-11-21T16:34:50.529Z,100523.14
2017-11-21T16:37:18.836Z,100530.83
2017-11-21T16:39:47.128Z,100534.36
2017-11-21T16:42:15.493Z,100533.26
2017-11-21T16:44:43.800Z,100533.80
2017-11-21T16:47:12.186Z,100534.70
2017-11-21T16:49:40.538Z,100526.48
2017-11-21T16:52:08.874Z,100525.95
2017-11-21T16:54:37.176Z,100530.86
2017-11-21T16:57:05.744Z,100522.80
2017-11-21T16:59:36.342Z,100512.81
2017-11-21T17:02:05.116Z,100515.14
2017-11-21T17:04:33.393Z,100511.95
2017-11-21T17:07:01.884Z,100514.09
2017-11-21T17:09:30.212Z,100518.68
2017-11-21T17:11:58.540Z,100516.30
2017-11-21T17:14:26.843Z,100516.28
2017-11-21T17:16:55.176Z,100514.25
2017-11-21T17:19:23.465Z,100514.42
2017-11-21T17:21:52.477Z,100504.30
2017-11-21T17:24:21.102Z,100511.03
2017-11-21T17:26:49.812Z,100507.75
2017-11-21T17:29:19.144Z,100511.87
2017-11-21T17:31:47.700Z,100507.87
2017-11-21T17:34:16.071Z,100510.61
2017-11-21T17:36:44.364Z,100508.03
2017-11-21T17:39:12.657Z,100496.30
2017-11-21T17:41:40.996Z,100500.78
2017-11-21T17:44:09.758Z,100507.16
2017-11-21T17:46:39.045Z,100499.22
2017-11-21T17:49:07.348Z,100500.20
2017-11-21T17:51:35.640Z,100502.58
2017-11-21T17:54:03.912Z,100506.41
2017-11-21T17:56:32.229Z,100503.64
2017-11-21T17:59:00.561Z,100506.25
2017-11-21T18:01:28.896Z,100492.89
2017-11-21T18:03:57.200Z,100493.59
2017-11-21T18:06:25.512Z,100497.55
2017-11-21T18:08:56.201Z,100491.78
2017-11-21T18:11:25.358Z,100487.80
2017-11-21T18:13:54.941Z,100484.66
2017-11-21T18:16:24.416Z,100487.63
2017-11-21T18:18:53.785Z,100486.61
2017-11-21T18:21:22.168Z,100483.78
2017-11-21T18:23:50.594Z,100480.89
2017-11-21T18:26:19.356Z,100484.01
2017-11-21T18:28:47.781Z,100477.63
2017-11-21T18:31:16.599Z,100478.03
2017-11-21T18:33:46.078Z,100478.46
2017-11-21T18:36:15.413Z,100480.82
2017-11-21T18:38:43.712Z,100476.27
2017-11-21T18:41:12.053Z,100478.52
2017-11-21T18:43:40.350Z,100475.09
2017-11-21T18:46:08.776Z,100474.67
2017-11-21T18:48:37.060Z,100467.66
2017-11-21T18:51:05.731Z,100462.55
2017-11-21T18:53:33.988Z,100464.70
2017-11-21T18:56:04.828Z,100464.24
2017-11-21T18:58:33.325Z,100466.63
2017-11-21T19:01:02.528Z,100477.75
2017-11-21T19:03:32.293Z,100464.41
2017-11-21T19:06:00.614Z,100465.61
2017-11-21T19:08:28.887Z,100461.63
2017-11-21T19:10:57.208Z,100461.69
2017-11-21T19:13:25.511Z,100461.86
2017-11-21T19:15:53.869Z,100460.30
2017-11-21T19:18:23.984Z,100457.56
2017-11-21T19:20:53.677Z,100456.34
2017-11-21T19:23:21.949Z,100447.02
2017-11-21T19:25:50.302Z,100447.59
2017-11-21T19:28:18.657Z,100445.03
2017-11-21T19:30:47.724Z,100446.02
2017-11-21T19:33:16.516Z,100448.42
2017-11-21T19:35:45.372Z,100447.36
2017-11-21T19:38:13.840Z,100448.13
2017-11-21T19:40:42.192Z,100448.30
2017-11-21T19:43:11.263Z,100441.92
2017-11-21T19:45:40.938Z,100447.48
2017-11-21T19:48:09.269Z,100442.09
2017-11-21T19:50:37.696Z,100441.11
2017-11-21T19:53:06.029Z,100447.08
2017-11-21T19:55:34.398Z,100437.34
2017-11-21T19:58:02.665Z,100440.30
2017-11-21T20:00:31.873Z,100436.13
2017-11-21T20:03:00.176Z,100439.09
2017-11-21T20:05:28.601Z,100437.92
2017-11-21T20:07:56.978Z,100444.48
2017-11-21T20:10:25.317Z,100451.89
2017-11-21T20:12:53.654Z,100450.50
2017-11-21T20:15:21.953Z,100448.75
2017-11-21T20:17:50.232Z,100446.14
2017-11-21T20:20:18.553Z,100448.52
2017-11-21T20:22:46.880Z,100445.56
2017-11-21T20:25:15.230Z,100445.39
2017-11-21T20:27:43.562Z,100448.38
2017-11-21T20:30:11.871Z,100441.00
2017-11-21T20:32:40.406Z,100442.05
2017-11-21T20:35:10.035Z,100440.47
2017-11-21T20:37:38.336Z,100447.20
2017-11-21T20:40:06.885Z,100442.85
2017-11-21T20:42:35.640Z,100444.06
2017-11-21T20:45:03.940Z,100438.09
2017-11-21T20:47:32.280Z,100429.92
2017-11-21T20:50:00.577Z,100416.81
2017-11-21T20:52:29.072Z,100420.98
2017-11-21T20:54:57.344Z,100422.78
2017-11-21T20:57:25.846Z,100425.56
2017-11-21T20:59:54.297Z,100433.11
2017-11-21T21:02:22.624Z,100429.92
2017-11-21T21:04:51.055Z,100426.73
2017-11-21T21:07:19.368Z,100427.72
2017-11-21T21:09:47.659Z,100430.73
2017-11-21T21:12:15.967Z,100428.53
2017-11-21T21:14:44.285Z,100430.91
2017-11-21T21:17:12.645Z,100425.74
2017-11-21T21:19:41.489Z,100415.02
2017-11-21T21:22:10.170Z,100410.84
2017-11-21T21:24:38.964Z,100405.27
2017-11-21T21:27:16.208Z,100404.86
2017-11-21T21:29:44.521Z,100406.20
2017-11-21T21:32:13.176Z,100411.59
2017-11-21T21:34:41.770Z,100404.69
2017-11-21T21:37:10.346Z,100400.91
2017-11-21T21:39:38.733Z,100398.71
2017-11-21T21:42:07.054Z,100404.91
2017-11-21T21:44:35.365Z,100400.33
2017-11-21T21:47:03.988Z,100392.33
2017-11-21T21:49:32.398Z,100393.32
2017-11-21T21:52:00.717Z,100389.33
2017-11-21T21:54:29.240Z,100392.28
2017-11-21T21:56:57.708Z,100393.66
2017-11-21T21:59:25.989Z,100395.86
2017-11-21T22:01:54.493Z,100406.41
2017-11-21T22:04:22.769Z,100407.59
2017-11-21T22:06:51.237Z,100412.17
2017-11-21T22:09:19.523Z,100406.41
2017-11-21T22:11:48.276Z,100413.14
2017-11-21T22:14:16.601Z,100416.69
2017-11-21T22:16:45.268Z,100403.58
2017-11-21T22:19:14.528Z,100403.94
2017-11-21T22:21:44.075Z,100394.42
2017-11-21T22:24:13.015Z,100396.57
2017-11-21T22:26:41.474Z,100387.99
2017-11-21T22:29:10.248Z,100387.18
2017-11-21T22:31:38.760Z,100377.44
2017-11-21T22:34:07.221Z,100372.89
2017-11-21T22:36:36.085Z,100378.45
2017-11-21T22:39:05.009Z,100385.02
2017-11-21T22:41:33.429Z,100386.00
2017-11-21T22:44:01.725Z,100387.97
2017-11-21T22:46:30.037Z,100387.16
2017-11-21T22:48:58.343Z,100386.53
2017-11-21T22:51:27.170Z,100383.16
2017-11-21T22:53:55.493Z,100391.88
2017-11-21T22:56:23.787Z,100391.29
2017-11-21T22:58:53.110Z,100375.98
2017-11-21T23:01:22.835Z,100373.02
2017-11-21T23:03:51.305Z,100369.66
2017-11-21T23:06:20.713Z,100368.44
2017-11-21T23:08:49.393Z,100368.66
2017-11-21T23:11:26.443Z,100371.63
2017-11-21T23:13:58.495Z,100363.05
2017-11-21T23:16:27.112Z,100375.40
2017-11-21T23:18:55.637Z,100369.20
2017-11-21T23:21:23.970Z,100360.02
2017-11-21T23:23:52.245Z,100368.80
2017-11-21T23:26:20.582Z,100364.22
2017-11-21T23:28:49.188Z,100353.48
2017-11-21T23:31:17.908Z,100349.52
2017-11-21T23:33:46.212Z,100345.34
2017-11-21T23:36:14.533Z,100348.50
2017-11-21T23:38:42.832Z,100347.72
2017-11-21T23:41:11.276Z,100344.53
2017-11-21T23:43:39.544Z,100340.77
2017-11-21T23:46:07.861Z,100335.37
2017-11-21T23:48:36.137Z,100334.39
2017-11-21T23:51:04.596Z,100330.03
2017-11-21T23:53:33.057Z,100327.20
2017-11-21T23:56:01.352Z,100331.95
2017-11-21T23:58:29.676Z,100328.95
